Time;durP1;ratioP1;P1;durP2;ratioP2;P2;SDS_P1;SDS_P2;PMS_P1;PMS_P2;Temp;Humidity;BMP_temperature;BMP_pressure;BME280_temperature;BME280_humidity;BME280_pressure;Samples;Min_cycle;Max_cycle;Signal;HPM_P1;HPM_P2
2021/11/16 00:01:50;;;;;;;6.60;5.15;;;11.00;99.30;;;;;;4888222;29;20135;-52
2021/11/16 00:04:18;;;;;;;5.68;4.55;;;11.10;99.50;;;;;;4894519;29;20132;-52
2021/11/16 00:06:51;;;;;;;5.10;4.60;;;11.00;99.50;;;;;;4858266;29;20094;-52
2021/11/16 00:09:18;;;;;;;4.95;4.22;;;11.00;99.20;;;;;;4893100;29;20489;-53
2021/11/16 00:11:44;;;;;;;5.50;4.40;;;11.00;98.50;;;;;;4884184;29;20441;-54
2021/11/16 00:14:12;;;;;;;5.40;4.53;;;11.00;99.10;;;;;;4895901;29;20060;-56
2021/11/16 00:16:41;;;;;;;5.70;4.93;;;11.00;99.30;;;;;;4889025;29;20084;-52
2021/11/16 00:19:12;;;;;;;5.50;4.68;;;10.90;97.50;;;;;;4887957;29;20456;-54
2021/11/16 00:21:43;;;;;;;5.55;4.68;;;10.90;96.60;;;;;;4886588;29;20205;-56
2021/11/16 00:24:17;;;;;;;6.88;6.18;;;10.80;96.80;;;;;;4886331;29;20057;-54
2021/11/16 00:26:44;;;;;;;6.85;5.85;;;10.80;94.70;;;;;;4870020;29;20085;-52
2021/11/16 00:29:10;;;;;;;4.97;4.35;;;10.80;95.40;;;;;;4887612;29;20079;-54
2021/11/16 00:31:37;;;;;;;5.15;4.20;;;10.90;97.30;;;;;;4892755;29;20167;-55
2021/11/16 00:34:04;;;;;;;4.47;3.85;;;11.00;96.70;;;;;;4909313;29;20056;-49
2021/11/16 00:36:31;;;;;;;4.40;4.00;;;11.00;96.20;;;;;;4909427;29;20054;-56
2021/11/16 00:38:59;;;;;;;4.57;3.92;;;11.00;96.80;;;;;;4908633;29;20155;-54
2021/11/16 00:41:27;;;;;;;5.38;4.18;;;11.00;97.40;;;;;;4908212;29;20048;-55
2021/11/16 00:43:53;;;;;;;5.45;4.25;;;11.00;97.90;;;;;;4906685;29;20135;-55
2021/11/16 00:46:20;;;;;;;5.18;3.83;;;11.00;98.20;;;;;;4908900;29;20136;-54
2021/11/16 00:48:47;;;;;;;5.00;4.38;;;11.00;98.20;;;;;;4908834;29;20488;-53
2021/11/16 00:51:14;;;;;;;5.07;3.80;;;11.00;98.40;;;;;;4908936;29;20135;-51
2021/11/16 00:53:41;;;;;;;4.35;3.60;;;11.00;98.10;;;;;;4908588;29;20095;-55
2021/11/16 00:56:08;;;;;;;5.72;5.18;;;11.00;96.30;;;;;;4908064;29;20331;-51
2021/11/16 00:58:35;;;;;;;4.85;4.30;;;11.00;96.80;;;;;;4906784;29;20425;-52
2021/11/16 01:01:02;;;;;;;4.53;4.10;;;11.10;96.10;;;;;;4909040;29;20119;-53
2021/11/16 01:03:29;;;;;;;5.15;4.65;;;11.10;97.70;;;;;;4907217;29;20055;-50
2021/11/16 01:05:56;;;;;;;5.07;4.57;;;11.10;98.40;;;;;;4908953;29;20548;-55
2021/11/16 01:08:23;;;;;;;4.72;4.22;;;11.10;97.60;;;;;;4908305;29;20131;-52
2021/11/16 01:10:50;;;;;;;5.28;4.60;;;11.10;98.20;;;;;;4908299;29;20171;-51
2021/11/16 01:13:17;;;;;;;5.75;4.57;;;11.10;96.50;;;;;;4906958;29;20083;-51
2021/11/16 01:15:44;;;;;;;4.97;4.47;;;11.10;96.20;;;;;;4911900;29;20103;-52
2021/11/16 01:18:12;;;;;;;5.38;4.85;;;11.10;96.00;;;;;;4911722;29;20140;-50
2021/11/16 01:20:39;;;;;;;5.13;4.63;;;11.10;97.60;;;;;;4911102;29;20087;-51
2021/11/16 01:23:07;;;;;;;5.13;4.55;;;11.10;97.90;;;;;;4909726;29;20527;-53
2021/11/16 01:25:37;;;;;;;6.82;4.93;;;11.10;98.90;;;;;;4911878;29;20048;-50
2021/11/16 01:28:13;;;;;;;5.40;4.72;;;11.10;99.00;;;;;;4908718;29;20168;-53
2021/11/16 01:30:43;;;;;;;5.68;4.68;;;11.00;99.10;;;;;;4911887;29;20084;-55
2021/11/16 01:33:15;;;;;;;5.28;4.50;;;11.00;98.80;;;;;;4910778;29;20056;-55
2021/11/16 01:35:43;;;;;;;4.97;4.45;;;10.90;98.80;;;;;;4912010;29;20119;-55
2021/11/16 01:38:10;;;;;;;5.45;4.63;;;10.90;99.00;;;;;;4910638;29;20400;-55
2021/11/16 01:40:38;;;;;;;4.55;4.15;;;10.90;99.70;;;;;;4910964;29;20310;-53
2021/11/16 01:43:08;;;;;;;4.82;4.25;;;10.90;99.60;;;;;;4908523;29;20469;-53
2021/11/16 01:45:55;;;;;;;5.40;4.57;;;10.90;99.60;;;;;;4911022;29;20063;-55
2021/11/16 01:48:23;;;;;;;4.82;4.32;;;10.90;98.90;;;;;;4910885;29;20100;-52
2021/11/16 01:50:50;;;;;;;5.60;4.93;;;10.90;99.10;;;;;;4911124;29;20087;-56
2021/11/16 01:53:17;;;;;;;5.60;4.95;;;10.90;99.30;;;;;;4910328;29;20151;-54
2021/11/16 01:55:45;;;;;;;4.65;4.10;;;10.90;97.90;;;;;;4910965;29;20086;-50
2021/11/16 01:58:12;;;;;;;5.47;4.63;;;10.90;97.20;;;;;;4892015;29;20503;-54
2021/11/16 02:00:40;;;;;;;5.28;4.78;;;10.90;96.80;;;;;;4911741;29;20746;-51
2021/11/16 02:03:11;;;;;;;5.47;4.50;;;11.00;96.10;;;;;;4910570;29;20947;-52
2021/11/16 02:05:39;;;;;;;5.72;4.95;;;11.00;96.70;;;;;;4911386;29;20420;-50
2021/11/16 02:08:06;;;;;;;4.93;4.25;;;10.90;95.10;;;;;;4910425;29;20131;-55
2021/11/16 02:10:32;;;;;;;4.85;4.35;;;10.90;95.10;;;;;;4911192;29;20524;-55
2021/11/16 02:12:59;;;;;;;5.05;4.55;;;10.90;94.90;;;;;;4907284;29;20139;-51
2021/11/16 02:15:26;;;;;;;5.28;4.40;;;10.90;96.90;;;;;;4910458;29;20095;-51
2021/11/16 02:17:53;;;;;;;4.35;3.95;;;11.00;97.40;;;;;;4909698;29;20079;-50
2021/11/16 02:20:20;;;;;;;4.63;4.03;;;10.90;95.00;;;;;;4911071;29;20052;-50
2021/11/16 02:22:47;;;;;;;5.10;4.60;;;10.90;94.50;;;;;;4909023;29;20150;-54
2021/11/16 02:25:14;;;;;;;4.20;3.72;;;11.00;95.10;;;;;;4907481;29;20083;-55
2021/11/16 02:27:41;;;;;;;4.53;4.13;;;11.00;94.60;;;;;;4904489;29;20139;-54
2021/11/16 02:30:08;;;;;;;4.65;4.03;;;11.00;95.10;;;;;;4909773;29;20491;-53
2021/11/16 02:32:35;;;;;;;5.47;4.75;;;11.00;94.20;;;;;;4902991;29;20131;-55
2021/11/16 02:35:02;;;;;;;4.80;4.30;;;11.00;94.30;;;;;;4912121;29;20131;-52
2021/11/16 02:37:32;;;;;;;5.93;4.97;;;11.00;96.10;;;;;;4912205;29;20127;-53
2021/11/16 02:40:00;;;;;;;5.25;4.75;;;11.00;97.60;;;;;;4911774;29;20108;-51
2021/11/16 02:42:27;;;;;;;4.72;4.22;;;10.90;97.40;;;;;;4894163;29;20083;-56
2021/11/16 02:44:54;;;;;;;5.55;4.18;;;10.90;98.40;;;;;;4910857;29;20139;-55
2021/11/16 02:47:20;;;;;;;4.80;4.30;;;10.90;98.50;;;;;;4903998;29;20116;-54
2021/11/16 02:49:47;;;;;;;4.45;4.05;;;10.90;98.90;;;;;;4892224;29;20136;-53
2021/11/16 02:52:14;;;;;;;5.00;4.50;;;10.90;98.30;;;;;;4897256;29;20480;-55
2021/11/16 02:54:41;;;;;;;4.60;4.07;;;10.90;98.70;;;;;;4892978;29;20491;-54
2021/11/16 02:57:10;;;;;;;4.10;3.70;;;10.90;98.30;;;;;;4909634;29;20397;-51
2021/11/16 02:59:36;;;;;;;4.43;4.03;;;10.90;98.00;;;;;;4908779;29;20094;-54
2021/11/16 03:02:03;;;;;;;5.13;4.63;;;10.90;98.10;;;;;;4896518;29;20127;-55
2021/11/16 03:04:33;;;;;;;4.82;3.78;;;10.90;97.30;;;;;;4893668;29;20409;-55
2021/11/16 03:07:04;;;;;;;4.88;4.30;;;10.80;98.00;;;;;;4909729;29;20076;-55
2021/11/16 03:09:32;;;;;;;5.25;4.60;;;10.80;97.30;;;;;;4893462;29;20150;-56
2021/11/16 03:11:59;;;;;;;5.97;4.72;;;10.80;97.60;;;;;;4908025;29;20572;-56
2021/11/16 03:14:27;;;;;;;5.38;4.43;;;10.80;97.90;;;;;;4908336;29;20135;-53
2021/11/16 03:16:54;;;;;;;4.88;4.35;;;10.80;98.20;;;;;;4909724;29;20147;-54
2021/11/16 03:19:22;;;;;;;5.47;4.72;;;10.70;98.20;;;;;;4892964;29;20090;-52
2021/11/16 03:21:56;;;;;;;5.90;4.60;;;10.70;98.40;;;;;;4907754;29;20155;-55
2021/11/16 03:24:24;;;;;;;4.78;4.28;;;10.70;98.90;;;;;;4902126;29;20147;-55
2021/11/16 03:26:52;;;;;;;5.43;4.50;;;10.80;99.40;;;;;;4908280;29;20091;-52
2021/11/16 03:29:23;;;;;;;6.15;4.68;;;10.80;99.50;;;;;;4890291;29;20092;-50
2021/11/16 03:31:52;;;;;;;5.60;4.60;;;10.70;99.90;;;;;;4908596;29;20080;-53
2021/11/16 03:34:19;;;;;;;4.57;3.95;;;10.80;99.90;;;;;;4899351;29;20454;-55
2021/11/16 03:36:46;;;;;;;5.40;4.50;;;10.70;99.00;;;;;;4897106;29;20138;-55
2021/11/16 03:39:13;;;;;;;5.47;4.63;;;10.70;99.00;;;;;;4901480;29;20361;-56
2021/11/16 03:41:40;;;;;;;5.85;4.38;;;10.70;99.10;;;;;;4881888;29;20281;-55
2021/11/16 03:44:07;;;;;;;5.75;4.68;;;10.70;99.20;;;;;;4903415;29;20135;-56
2021/11/16 03:46:34;;;;;;;5.68;4.40;;;10.60;99.70;;;;;;4904638;29;20549;-55
2021/11/16 03:49:01;;;;;;;5.18;4.25;;;10.60;99.90;;;;;;4904695;29;20048;-55
2021/11/16 03:51:28;;;;;;;5.00;4.38;;;10.60;99.90;;;;;;4900510;29;20171;-53
2021/11/16 03:53:54;;;;;;;5.95;4.65;;;10.60;99.70;;;;;;4886330;29;20095;-53
2021/11/16 03:56:21;;;;;;;6.03;4.40;;;10.60;99.90;;;;;;4886204;29;20222;-51
2021/11/16 03:58:48;;;;;;;5.35;3.95;;;10.60;99.70;;;;;;4885147;29;20084;-52
2021/11/16 04:01:16;;;;;;;6.25;4.88;;;10.60;99.80;;;;;;4886511;29;20569;-50
2021/11/16 04:03:44;;;;;;;5.28;3.92;;;10.50;99.90;;;;;;4887258;29;20052;-51
2021/11/16 04:06:11;;;;;;;5.57;4.93;;;10.50;99.90;;;;;;4891256;29;20057;-52
2021/11/16 04:08:38;;;;;;;7.35;4.78;;;10.50;99.90;;;;;;4890369;29;20692;-52
2021/11/16 04:11:05;;;;;;;5.85;4.90;;;10.40;99.90;;;;;;4889984;29;20167;-49
2021/11/16 04:13:32;;;;;;;5.57;4.80;;;10.40;99.90;;;;;;4872027;29;20172;-54
2021/11/16 04:15:58;;;;;;;6.00;4.43;;;10.40;99.90;;;;;;4871652;29;20139;-52
2021/11/16 04:18:25;;;;;;;5.10;4.22;;;10.50;99.90;;;;;;4890333;29;20408;-53
2021/11/16 04:20:54;;;;;;;5.10;4.20;;;10.50;99.90;;;;;;4890790;29;20500;-51
2021/11/16 04:23:22;;;;;;;5.75;4.43;;;10.50;99.90;;;;;;4873408;29;20154;-52
2021/11/16 04:25:49;;;;;;;7.20;5.30;;;10.50;99.90;;;;;;4890711;29;20132;-50
2021/11/16 04:28:16;;;;;;;4.78;4.05;;;10.50;99.90;;;;;;4895234;29;20619;-49
2021/11/16 04:30:43;;;;;;;6.25;4.97;;;10.50;99.90;;;;;;4909361;29;20131;-53
2021/11/16 04:33:11;;;;;;;7.07;4.95;;;10.50;99.90;;;;;;4908337;29;20492;-54
2021/11/16 04:35:38;;;;;;;5.82;4.40;;;10.50;99.90;;;;;;4908736;29;20060;-51
2021/11/16 04:38:05;;;;;;;6.53;4.65;;;10.50;99.90;;;;;;4908556;29;20056;-55
2021/11/16 04:40:37;;;;;;;4.97;4.38;;;10.50;99.90;;;;;;4909371;29;20063;-55
2021/11/16 04:43:07;;;;;;;6.22;4.80;;;10.50;99.90;;;;;;4907081;29;20048;-54
2021/11/16 04:45:34;;;;;;;6.60;4.88;;;10.50;99.90;;;;;;4908709;29;20479;-53
2021/11/16 04:48:06;;;;;;;6.85;4.78;;;10.50;99.90;;;;;;4908442;29;20110;-52
2021/11/16 04:51:06;;;;;;;5.28;4.38;;;10.50;99.90;;;;;;4909266;29;20387;-55
2021/11/16 05:04:20;;;;;;;6.90;4.70;;;10.30;99.90;;;;;;4908813;29;20543;-53
2021/11/16 05:06:48;;;;;;;5.22;4.18;;;10.30;99.90;;;;;;4908425;29;20147;-53
2021/11/16 05:09:15;;;;;;;6.00;4.68;;;10.30;99.90;;;;;;4906902;29;20123;-51
2021/11/16 05:11:42;;;;;;;6.60;4.97;;;10.40;99.90;;;;;;4890849;29;20172;-50
2021/11/16 05:14:10;;;;;;;6.13;4.93;;;10.30;99.90;;;;;;4890549;29;20079;-53
2021/11/16 05:16:36;;;;;;;5.88;4.60;;;10.30;99.90;;;;;;4892775;29;20058;-49
2021/11/16 05:19:03;;;;;;;7.90;4.60;;;10.40;99.90;;;;;;4896609;29;20049;-51
2021/11/16 05:21:31;;;;;;;6.00;4.72;;;10.40;99.90;;;;;;4913895;29;20136;-54
2021/11/16 05:23:59;;;;;;;6.28;4.50;;;10.30;99.90;;;;;;4896269;29;20502;-55
2021/11/16 05:26:27;;;;;;;5.65;4.57;;;10.30;99.90;;;;;;4894350;29;20095;-53
2021/11/16 05:28:55;;;;;;;6.05;4.72;;;10.30;99.90;;;;;;4892376;29;20080;-54
2021/11/16 05:31:22;;;;;;;5.68;4.97;;;10.30;99.90;;;;;;4874843;29;20144;-51
2021/11/16 05:33:49;;;;;;;5.70;4.60;;;10.30;99.90;;;;;;4874340;29;20053;-53
2021/11/16 05:36:16;;;;;;;5.15;4.45;;;10.30;99.90;;;;;;4891143;29;20112;-54
2021/11/16 05:38:48;;;;;;;5.25;4.38;;;10.30;99.90;;;;;;4877758;29;20076;-53
2021/11/16 05:41:15;;;;;;;5.70;4.97;;;10.20;99.90;;;;;;4909546;29;20111;-50
2021/11/16 05:43:44;;;;;;;5.18;4.40;;;10.20;99.90;;;;;;4894262;29;20155;-53
2021/11/16 05:46:12;;;;;;;5.68;4.78;;;10.20;99.90;;;;;;4890789;29;20144;-53
2021/11/16 05:48:40;;;;;;;5.50;3.92;;;10.20;99.90;;;;;;4874153;29;20065;-53
2021/11/16 05:51:07;;;;;;;6.45;4.32;;;10.20;99.90;;;;;;4894213;29;20148;-54
2021/11/16 05:53:36;;;;;;;6.55;4.65;;;10.20;99.90;;;;;;4893749;29;20221;-52
2021/11/16 05:56:04;;;;;;;6.60;4.82;;;10.20;99.90;;;;;;4893838;29;20084;-52
2021/11/16 05:58:31;;;;;;;5.32;4.25;;;10.20;99.90;;;;;;4887294;29;20095;-53
2021/11/16 06:00:57;;;;;;;5.50;4.55;;;10.20;99.90;;;;;;4897475;29;20058;-54
2021/11/16 06:03:25;;;;;;;6.45;4.72;;;10.30;99.90;;;;;;4895293;29;20139;-50
2021/11/16 06:05:52;;;;;;;6.45;4.65;;;10.20;99.90;;;;;;4896849;29;20091;-51
2021/11/16 06:08:26;;;;;;;5.95;5.05;;;10.30;99.90;;;;;;4898059;29;20412;-50
2021/11/16 06:10:53;;;;;;;6.05;4.90;;;10.30;99.90;;;;;;4877485;29;20051;-52
2021/11/16 06:13:20;;;;;;;6.10;4.40;;;10.20;99.90;;;;;;4890393;29;20542;-53
2021/11/16 06:15:47;;;;;;;7.10;5.28;;;10.10;99.90;;;;;;4895199;29;20191;-53
2021/11/16 06:18:14;;;;;;;5.93;5.03;;;10.10;99.90;;;;;;4896545;29;20438;-54
2021/11/16 06:20:42;;;;;;;6.55;4.50;;;10.00;99.90;;;;;;4896750;29;20419;-52
2021/11/16 06:23:11;;;;;;;8.43;4.10;;;9.90;99.90;;;;;;4882833;29;20167;-55
2021/11/16 06:25:39;;;;;;;5.18;4.57;;;9.90;99.90;;;;;;4895007;29;20059;-51
2021/11/16 06:28:05;;;;;;;5.82;4.70;;;9.90;99.90;;;;;;4892448;29;20160;-54
2021/11/16 06:30:33;;;;;;;5.72;4.55;;;9.70;99.90;;;;;;4892662;29;20511;-53
2021/11/16 06:32:59;;;;;;;5.60;4.10;;;9.60;99.90;;;;;;4875903;29;20641;-54
2021/11/16 06:35:26;;;;;;;5.47;4.25;;;9.50;99.90;;;;;;4893064;29;20056;-53
2021/11/16 06:37:53;;;;;;;6.07;4.85;;;9.50;99.90;;;;;;4892812;29;20052;-54
2021/11/16 06:40:20;;;;;;;5.20;4.40;;;9.40;99.90;;;;;;4898012;29;20289;-52
2021/11/16 06:42:47;;;;;;;5.50;4.05;;;9.30;99.90;;;;;;4902542;29;20151;-52
2021/11/16 06:45:13;;;;;;;5.78;4.22;;;9.20;99.90;;;;;;4896667;29;20084;-55
2021/11/16 06:47:40;;;;;;;5.78;4.25;;;9.00;99.90;;;;;;4873384;29;20084;-54
2021/11/16 06:50:08;;;;;;;4.78;4.10;;;8.90;99.90;;;;;;4884852;29;20207;-54
2021/11/16 06:52:37;;;;;;;6.95;4.82;;;8.80;99.90;;;;;;4892700;29;20079;-51
2021/11/16 06:55:07;;;;;;;4.65;4.20;;;8.80;99.90;;;;;;4890414;29;20575;-53
2021/11/16 06:57:34;;;;;;;4.97;4.22;;;8.70;99.90;;;;;;4903020;29;20167;-54
2021/11/16 07:00:05;;;;;;;4.25;3.75;;;8.70;99.90;;;;;;4890312;29;20130;-53
2021/11/16 07:02:32;;;;;;;5.25;4.15;;;8.60;99.90;;;;;;4891480;29;20480;-54
2021/11/16 07:04:59;;;;;;;4.95;4.03;;;8.50;99.90;;;;;;4902523;29;20131;-54
2021/11/16 07:07:26;;;;;;;7.00;4.05;;;8.40;99.90;;;;;;4880026;29;20844;-55
2021/11/16 07:09:53;;;;;;;6.68;4.60;;;8.40;99.90;;;;;;4898945;29;20331;-54
2021/11/16 07:12:25;;;;;;;6.20;4.43;;;8.30;99.90;;;;;;4895455;29;20107;-53
2021/11/16 07:14:52;;;;;;;7.50;4.80;;;8.30;99.90;;;;;;4891414;29;20079;-53
2021/11/16 07:17:19;;;;;;;5.28;4.20;;;8.20;99.90;;;;;;4867856;29;20088;-55
2021/11/16 07:19:52;;;;;;;6.45;4.95;;;8.20;99.90;;;;;;4888243;29;20135;-54
2021/11/16 07:22:27;;;;;;;5.40;4.30;;;8.10;99.90;;;;;;4884413;29;20136;-53
2021/11/16 07:24:58;;;;;;;6.28;4.85;;;8.10;99.90;;;;;;4884143;29;20581;-53
2021/11/16 07:27:52;;;;;;;6.70;5.03;;;8.00;99.90;;;;;;4883316;29;20087;-52
2021/11/16 07:30:25;;;;;;;6.10;4.90;;;7.90;99.90;;;;;;4881664;29;20104;-53
2021/11/16 07:32:57;;;;;;;5.25;4.40;;;7.90;99.90;;;;;;4883216;29;20140;-49
2021/11/16 07:35:25;;;;;;;6.35;4.85;;;7.80;99.90;;;;;;4884347;29;20467;-55
2021/11/16 07:38:00;;;;;;;6.10;5.43;;;7.80;99.90;;;;;;4884098;29;20087;-52
2021/11/16 07:40:27;;;;;;;7.53;5.22;;;7.80;99.90;;;;;;4868440;29;20975;-54
2021/11/16 07:42:57;;;;;;;6.53;5.50;;;7.70;99.90;;;;;;4865519;29;20088;-51
2021/11/16 07:45:31;;;;;;;6.18;4.82;;;7.70;99.90;;;;;;4884156;29;20135;-54
2021/11/16 07:48:04;;;;;;;6.85;5.47;;;7.70;99.90;;;;;;4883771;29;20798;-48
2021/11/16 07:50:30;;;;;;;7.03;5.00;;;7.60;99.90;;;;;;4884798;29;20131;-54
2021/11/16 07:53:35;;;;;;;6.93;5.32;;;7.60;99.90;;;;;;4883600;29;20095;-55
2021/11/16 07:56:09;;;;;;;7.95;5.47;;;7.50;99.90;;;;;;4884233;29;20433;-54
2021/11/16 07:58:38;;;;;;;9.40;6.55;;;7.50;99.90;;;;;;4882421;29;20120;-54
2021/11/16 08:01:10;;;;;;;7.85;6.07;;;7.50;99.90;;;;;;4884487;29;20095;-55
2021/11/16 08:06:40;;;;;;;7.53;5.57;;;7.50;99.90;;;;;;4842999;29;20080;-53
2021/11/16 08:14:57;;;;;;;6.78;5.60;;;7.70;99.90;;;;;;4884749;29;20135;-53
2021/11/16 08:17:24;;;;;;;6.10;4.97;;;7.70;99.90;;;;;;4890030;29;20079;-54
2021/11/16 08:20:06;;;;;;;8.10;5.00;;;7.70;99.90;;;;;;4894108;29;20068;-53
2021/11/16 08:22:33;;;;;;;7.63;5.85;;;7.70;99.90;;;;;;4898202;29;20052;-53
2021/11/16 08:25:00;;;;;;;6.78;5.10;;;7.80;99.90;;;;;;4889465;29;20064;-49
2021/11/16 08:27:33;;;;;;;6.97;5.60;;;7.70;99.90;;;;;;4898546;29;20513;-52
2021/11/16 08:30:01;;;;;;;7.63;5.93;;;7.70;99.90;;;;;;4897940;29;20083;-53
2021/11/16 08:32:34;;;;;;;7.55;5.28;;;7.80;99.90;;;;;;4884332;29;20139;-55
2021/11/16 08:35:03;;;;;;;;;;;7.80;99.90;;;;;;4870478;29;20139;-52
2021/11/16 08:37:36;;;;;;;4.88;4.13;;;7.80;99.90;;;;;;4866927;29;20026;-52
2021/11/16 08:40:08;;;;;;;5.88;5.28;;;7.80;99.90;;;;;;4890216;29;20680;-54
2021/11/16 08:42:42;;;;;;;6.80;4.85;;;7.90;99.90;;;;;;4886245;29;20499;-54
2021/11/16 08:45:13;;;;;;;6.05;4.97;;;7.90;99.90;;;;;;4883071;29;20477;-55
2021/11/16 08:47:45;;;;;;;6.18;5.22;;;7.90;99.90;;;;;;4901513;29;20052;-54
2021/11/16 08:50:19;;;;;;;6.25;5.18;;;7.90;99.90;;;;;;4880173;29;20142;-54
2021/11/16 08:52:46;;;;;;;6.78;5.22;;;8.00;99.90;;;;;;4902815;29;20079;-54
2021/11/16 08:55:18;;;;;;;7.07;5.55;;;8.00;99.90;;;;;;4903849;29;20083;-54
2021/11/16 08:57:51;;;;;;;6.82;5.53;;;8.00;99.90;;;;;;4893055;29;20063;-54
2021/11/16 09:00:33;;;;;;;7.13;5.45;;;8.00;99.90;;;;;;4897230;29;20048;-54
2021/11/16 09:03:09;;;;;;;7.20;5.97;;;8.10;99.90;;;;;;4898720;29;20077;-54
2021/11/16 09:05:41;;;;;;;7.70;6.00;;;8.10;99.90;;;;;;4901239;29;20520;-53
2021/11/16 09:08:26;;;;;;;6.43;5.00;;;8.10;99.90;;;;;;4899088;29;20063;-54
2021/11/16 09:11:04;;;;;;;6.25;5.05;;;8.10;99.90;;;;;;4898496;29;20052;-55
2021/11/16 09:13:32;;;;;;;8.00;5.40;;;8.20;99.90;;;;;;4890986;29;20094;-53
2021/11/16 09:16:05;;;;;;;6.90;5.20;;;8.20;99.90;;;;;;4890249;29;20144;-49
2021/11/16 09:18:39;;;;;;;6.45;5.28;;;8.20;99.90;;;;;;4886180;29;20424;-54
2021/11/16 09:21:10;;;;;;;6.60;5.57;;;8.20;99.90;;;;;;4896881;29;20060;-53
2021/11/16 09:23:43;;;;;;;6.72;5.25;;;8.20;99.90;;;;;;4874152;29;20084;-54
2021/11/16 09:26:25;;;;;;;6.90;5.57;;;8.20;99.90;;;;;;4904337;29;20135;-54
2021/11/16 09:28:53;;;;;;;6.63;5.55;;;8.30;99.90;;;;;;4880989;29;20079;-53
2021/11/16 09:31:21;;;;;;;6.85;5.93;;;8.30;99.90;;;;;;4904076;29;20493;-54
2021/11/16 09:33:49;;;;;;;5.93;5.32;;;8.30;99.90;;;;;;4894394;29;20054;-54
2021/11/16 09:36:26;;;;;;;6.20;5.00;;;8.40;99.90;;;;;;4897565;29;20166;-55
2021/11/16 09:38:57;;;;;;;6.70;5.75;;;8.40;99.90;;;;;;4895870;29;20131;-53
2021/11/16 09:41:36;;;;;;;6.65;5.43;;;8.40;99.90;;;;;;4903517;29;20115;-53
2021/11/16 09:44:27;;;;;;;7.03;5.28;;;8.50;99.90;;;;;;4902085;29;20151;-55
2021/11/16 09:47:07;;;;;;;6.47;5.82;;;8.50;99.90;;;;;;4894648;29;20120;-54
2021/11/16 09:49:38;;;;;;;7.28;5.70;;;8.60;99.90;;;;;;4896472;29;20655;-54
2021/11/16 09:52:13;;;;;;;7.03;5.80;;;8.70;99.90;;;;;;4894050;29;20496;-55
2021/11/16 09:54:49;;;;;;;6.78;6.07;;;8.70;99.90;;;;;;4885722;29;20060;-53
2021/11/16 09:57:16;;;;;;;7.30;6.18;;;8.70;99.90;;;;;;4898163;29;20155;-53
2021/11/16 09:59:43;;;;;;;7.75;6.20;;;8.90;99.90;;;;;;4886716;29;20052;-54
2021/11/16 10:02:23;;;;;;;7.60;6.25;;;8.90;99.90;;;;;;4893397;29;20177;-55
2021/11/16 10:04:54;;;;;;;7.50;5.63;;;9.00;99.90;;;;;;4880044;29;20463;-54
2021/11/16 10:07:21;;;;;;;7.55;5.68;;;9.00;99.90;;;;;;4885198;29;20052;-52
2021/11/16 10:09:49;;;;;;;8.10;6.65;;;9.10;99.90;;;;;;4898278;29;20139;-55
2021/11/16 10:12:17;;;;;;;8.38;6.80;;;9.10;99.90;;;;;;4899911;29;20163;-57
2021/11/16 10:14:46;;;;;;;8.88;6.97;;;9.20;99.90;;;;;;4890562;29;20136;-54
2021/11/16 10:17:12;;;;;;;8.63;7.45;;;9.30;99.90;;;;;;4899337;29;20465;-54
2021/11/16 10:19:40;;;;;;;8.55;6.80;;;9.40;99.90;;;;;;4901991;29;20127;-53
2021/11/16 10:22:11;;;;;;;9.23;6.95;;;9.40;99.90;;;;;;4885294;29;20693;-54
2021/11/16 10:24:39;;;;;;;9.77;8.30;;;9.50;99.90;;;;;;4889839;29;20084;-51
2021/11/16 10:27:31;;;;;;;8.75;7.63;;;9.60;99.70;;;;;;4901177;29;20482;-54
2021/11/16 10:30:09;;;;;;;9.43;8.23;;;9.70;99.30;;;;;;4904571;29;20139;-55
2021/11/16 10:32:37;;;;;;;7.63;6.35;;;9.80;98.50;;;;;;4897936;29;20076;-54
2021/11/16 10:35:11;;;;;;;6.47;5.85;;;9.80;97.90;;;;;;4893630;29;20064;-54
2021/11/16 10:37:54;;;;;;;7.63;6.57;;;9.90;98.10;;;;;;4886544;29;20820;-55
2021/11/16 10:40:24;;;;;;;6.65;5.93;;;10.00;98.10;;;;;;4894270;29;20084;-53
2021/11/16 10:42:56;;;;;;;6.75;5.93;;;10.00;97.60;;;;;;4902962;29;20080;-54
2021/11/16 10:45:25;;;;;;;6.70;6.00;;;10.10;96.00;;;;;;4904950;29;20092;-54
2021/11/16 10:47:55;;;;;;;6.00;5.40;;;10.10;95.90;;;;;;4903473;29;20075;-53
2021/11/16 10:50:24;;;;;;;6.18;5.18;;;10.20;95.90;;;;;;4887167;29;20147;-54
2021/11/16 10:53:06;;;;;;;5.97;5.28;;;10.20;95.80;;;;;;4904140;29;20048;-55
2021/11/16 10:55:54;;;;;;;6.03;5.25;;;10.20;95.60;;;;;;4903610;29;20134;-55
2021/11/16 10:58:35;;;;;;;7.78;6.32;;;10.30;94.90;;;;;;4901967;29;20056;-55
2021/11/16 11:01:07;;;;;;;6.95;5.38;;;10.30;94.10;;;;;;4903584;29;20477;-55
2021/11/16 11:03:39;;;;;;;6.63;5.90;;;10.30;95.40;;;;;;4899227;29;20127;-53
2021/11/16 11:06:10;;;;;;;7.97;6.07;;;10.40;95.60;;;;;;4877660;29;20087;-56
2021/11/16 11:08:53;;;;;;;6.30;5.50;;;10.40;95.10;;;;;;4902979;29;20356;-54
2021/11/16 11:11:27;;;;;;;6.10;5.50;;;10.50;94.80;;;;;;4896820;29;20724;-53
2021/11/16 11:14:09;;;;;;;6.88;5.20;;;10.50;94.60;;;;;;4893549;29;20116;-55
2021/11/16 11:16:43;;;;;;;5.45;4.60;;;10.60;94.70;;;;;;4897734;29;20251;-52
2021/11/16 11:19:17;;;;;;;5.95;5.20;;;10.70;94.50;;;;;;4903793;29;20476;-54
2021/11/16 11:21:57;;;;;;;7.50;6.43;;;10.90;94.40;;;;;;4892147;29;20107;-54
2021/11/16 11:24:28;;;;;;;7.68;6.88;;;11.00;94.20;;;;;;4869862;29;20731;-55
2021/11/16 11:27:00;;;;;;;9.52;7.18;;;11.20;93.50;;;;;;4901284;29;20112;-54
2021/11/16 11:29:36;;;;;;;7.97;7.15;;;11.40;93.00;;;;;;4893360;29;20045;-53
2021/11/16 11:32:10;;;;;;;6.57;5.95;;;11.60;92.40;;;;;;4879499;29;20293;-55
2021/11/16 11:34:41;;;;;;;;;;;11.70;91.30;;;;;;4888893;29;20128;-54
2021/11/16 11:37:12;;;;;;;5.63;5.03;;;11.80;90.80;;;;;;4902682;29;19933;-54
2021/11/16 11:39:39;;;;;;;5.65;4.65;;;11.90;91.40;;;;;;4903650;29;20140;-55
2021/11/16 11:42:09;;;;;;;6.53;5.93;;;12.00;91.80;;;;;;4902906;29;20585;-53
2021/11/16 11:44:43;;;;;;;7.53;6.70;;;12.10;91.60;;;;;;4901127;29;20145;-54
2021/11/16 11:47:10;;;;;;;6.22;5.55;;;12.10;91.30;;;;;;4887020;29;20163;-54
2021/11/16 11:49:39;;;;;;;6.95;6.13;;;12.20;91.70;;;;;;4895507;29;20780;-55
2021/11/16 11:52:06;;;;;;;7.07;6.32;;;12.30;91.70;;;;;;4874816;29;20116;-55
2021/11/16 11:54:37;;;;;;;6.05;5.45;;;12.30;91.40;;;;;;4885913;29;20048;-54
2021/11/16 11:57:04;;;;;;;6.85;6.15;;;12.40;91.20;;;;;;4870353;29;20383;-55
2021/11/16 11:59:32;;;;;;;6.57;5.70;;;12.40;90.60;;;;;;4901139;29;20609;-54
2021/11/16 12:01:58;;;;;;;6.05;5.45;;;12.30;90.30;;;;;;4884613;29;20076;-56
2021/11/16 12:04:25;;;;;;;6.00;5.40;;;12.30;90.90;;;;;;4867527;29;20075;-54
2021/11/16 12:06:53;;;;;;;6.03;5.43;;;12.30;90.80;;;;;;4871722;29;20163;-55
2021/11/16 12:09:21;;;;;;;5.95;5.07;;;12.30;90.80;;;;;;4895612;29;20144;-52
2021/11/16 12:11:49;;;;;;;5.95;5.35;;;12.40;91.00;;;;;;4884833;29;20380;-54
2021/11/16 12:14:48;;;;;;;6.35;5.57;;;12.40;90.90;;;;;;4889919;29;20072;-55
2021/11/16 12:17:17;;;;;;;5.40;4.90;;;12.40;91.10;;;;;;4887668;29;20143;-55
2021/11/16 12:19:48;;;;;;;5.63;4.78;;;12.40;91.20;;;;;;4855681;29;20132;-56
2021/11/16 12:22:23;;;;;;;6.03;5.30;;;12.40;91.20;;;;;;4902044;29;20135;-55
2021/11/16 12:24:58;;;;;;;6.28;4.95;;;12.60;91.00;;;;;;4903255;29;20080;-50
2021/11/16 12:27:32;;;;;;;5.45;4.88;;;12.90;90.90;;;;;;4900195;29;20147;-53
2021/11/16 12:30:00;;;;;;;6.05;4.80;;;13.20;88.70;;;;;;4901748;29;20108;-54
2021/11/16 12:32:30;;;;;;;5.18;4.68;;;13.40;88.60;;;;;;4899380;29;20555;-55
2021/11/16 12:35:05;;;;;;;4.85;4.32;;;13.60;87.30;;;;;;4901061;29;20570;-55
2021/11/16 12:37:46;;;;;;;4.70;4.15;;;13.60;86.30;;;;;;4887621;29;20480;-55
2021/11/16 12:40:40;;;;;;;5.35;4.53;;;13.50;86.80;;;;;;4887570;29;20060;-55
2021/11/16 12:43:07;;;;;;;4.93;4.10;;;13.50;87.20;;;;;;4892005;29;20413;-54
2021/11/16 12:45:45;;;;;;;4.43;4.03;;;13.50;87.30;;;;;;4884349;29;20135;-57
2021/11/16 12:48:13;;;;;;;3.88;3.47;;;13.40;88.30;;;;;;4889822;29;20100;-54
2021/11/16 12:51:12;;;;;;;5.90;3.53;;;13.30;86.80;;;;;;4889187;29;20144;-55
2021/11/16 12:53:59;;;;;;;4.13;2.97;;;13.30;88.60;;;;;;4890931;29;20147;-55
2021/11/16 12:56:47;;;;;;;3.50;2.97;;;13.40;86.90;;;;;;4887757;29;20063;-58
2021/11/16 12:59:34;;;;;;;3.53;3.08;;;13.40;87.30;;;;;;4891365;29;20056;-55
2021/11/16 13:02:05;;;;;;;3.15;2.85;;;13.40;87.40;;;;;;4903147;29;20076;-55
2021/11/16 13:04:42;;;;;;;4.20;3.78;;;13.40;87.50;;;;;;4898436;29;20127;-55
2021/11/16 13:07:37;;;;;;;4.28;3.88;;;13.30;87.50;;;;;;4887134;29;20143;-54
2021/11/16 13:10:13;;;;;;;4.82;3.20;;;13.30;88.50;;;;;;4895978;29;20052;-55
2021/11/16 13:12:50;;;;;;;3.20;2.90;;;13.30;88.80;;;;;;4899982;29;20056;-53
2021/11/16 13:15:24;;;;;;;3.25;2.83;;;13.30;87.90;;;;;;4887617;29;20393;-54
2021/11/16 13:18:08;;;;;;;3.88;2.78;;;13.40;87.50;;;;;;4899749;29;20155;-54
2021/11/16 13:20:41;;;;;;;;;;;13.60;88.10;;;;;;4891383;29;20072;-55
2021/11/16 13:23:14;;;;;;;4.17;3.50;;;13.60;87.40;;;;;;4905234;29;20057;-55
2021/11/16 13:26:00;;;;;;;4.00;2.80;;;13.30;88.90;;;;;;4892970;29;20091;-55
2021/11/16 13:31:14;;;;;;;2.72;2.17;;;13.20;88.90;;;;;;4892161;29;20571;-55